createdAt,value
2023-03-26T00:02:23.501Z,94487.34
2023-03-26T00:04:52.724Z,94486.34
2023-03-26T00:07:21.564Z,94499.59
2023-03-26T00:09:48.481Z,94505.66
2023-03-26T00:12:18.747Z,94504.88
2023-03-26T00:14:51.768Z,94497.50
2023-03-26T00:17:18.876Z,94491.38
2023-03-26T00:19:50.764Z,94492.22
2023-03-26T00:22:20.114Z,94477.09
2023-03-26T00:24:50.823Z,94483.22
2023-03-26T00:27:19.648Z,94477.94
2023-03-26T00:29:48.231Z,94474.25
2023-03-26T00:32:17.053Z,94473.19
2023-03-26T00:34:46.169Z,94465.47
2023-03-26T00:37:15.001Z,94466.03
2023-03-26T00:39:44.679Z,94467.91
2023-03-26T00:42:14.939Z,94460.75
2023-03-26T00:44:44.840Z,94460.75
2023-03-26T00:47:11.471Z,94464.44
2023-03-26T00:49:38.120Z,94461.56
2023-03-26T00:52:08.819Z,94469.50
2023-03-26T00:54:40.955Z,94466.84
2023-03-26T00:57:18.174Z,94462.34
2023-03-26T00:59:52.152Z,94468.47
2023-03-26T01:02:20.831Z,94465.81
2023-03-26T01:04:55.670Z,94467.41
2023-03-26T01:07:28.984Z,94465.81
2023-03-26T01:10:01.952Z,94464.78
2023-03-26T01:12:34.977Z,94466.38
2023-03-26T01:15:01.854Z,94466.38
2023-03-26T01:17:34.183Z,94475.13
2023-03-26T01:20:20.183Z,94474.31
2023-03-26T01:22:52.333Z,94483.09
2023-03-26T01:25:22.092Z,94483.88
2023-03-26T01:27:57.415Z,94489.16
2023-03-26T01:30:58.672Z,94489.97
2023-03-26T01:33:30.400Z,94491.81
2023-03-26T01:36:08.580Z,94496.06
2023-03-26T01:39:04.289Z,94493.66
2023-03-26T01:41:40.925Z,94489.16
2023-03-26T01:44:12.954Z,94492.84
2023-03-26T01:46:41.877Z,94496.06
2023-03-26T01:49:13.468Z,94493.41
2023-03-26T01:51:41.644Z,94497.66
2023-03-26T01:54:11.432Z,94497.66
2023-03-26T01:56:44.495Z,94498.72
2023-03-26T01:59:33.180Z,94501.13
2023-03-26T02:02:09.082Z,94501.91
2023-03-26T02:04:59.342Z,94493.19
2023-03-26T02:07:38.072Z,94492.38
2023-03-26T02:10:23.253Z,94501.13
2023-03-26T02:12:54.595Z,94495.84
2023-03-26T02:15:24.400Z,94489.72
2023-03-26T02:17:53.287Z,94497.66
2023-03-26T02:20:20.293Z,94497.66
2023-03-26T02:22:49.733Z,94502.19
2023-03-26T02:25:18.521Z,94502.97
2023-03-26T02:27:49.972Z,94499.28
2023-03-26T02:30:26.514Z,94489.72
2023-03-26T02:32:59.452Z,94493.97
2023-03-26T02:35:26.674Z,94497.66
2023-03-26T02:38:00.642Z,94501.34
2023-03-26T02:40:29.934Z,94496.63
2023-03-26T02:42:58.825Z,94495.03
2023-03-26T02:45:27.886Z,94509.06
2023-03-26T02:47:54.706Z,94510.91
2023-03-26T02:50:26.284Z,94518.63
2023-03-26T02:52:55.077Z,94516.19
2023-03-26T02:55:24.886Z,94521.50
2023-03-26T02:57:51.494Z,94529.44
2023-03-26T03:00:18.231Z,94532.09
2023-03-26T03:02:48.000Z,94529.44
2023-03-26T03:05:17.769Z,94527.84
2023-03-26T03:07:47.172Z,94536.34
2023-03-26T03:10:15.520Z,94528.66
2023-03-26T03:12:42.589Z,94533.13
2023-03-26T03:15:12.748Z,94531.31
2023-03-26T03:17:41.961Z,94533.13
2023-03-26T03:20:12.587Z,94536.81
2023-03-26T03:22:41.381Z,94538.44
2023-03-26T03:25:14.437Z,94537.63
2023-03-26T03:27:46.880Z,94549.03
2023-03-26T03:30:13.964Z,94549.03
2023-03-26T03:32:43.076Z,94549.84
2023-03-26T03:35:09.780Z,94558.00
2023-03-26T03:37:36.442Z,94554.31
2023-03-26T03:40:05.914Z,94547.41
2023-03-26T03:42:35.000Z,94546.38
2023-03-26T03:45:02.260Z,94541.06
2023-03-26T03:47:31.949Z,94543.16
2023-03-26T03:50:03.776Z,94547.41
2023-03-26T03:52:35.158Z,94551.66
2023-03-26T03:55:02.084Z,94556.41
2023-03-26T03:57:29.053Z,94554.78
2023-03-26T03:59:59.050Z,94561.69
2023-03-26T04:02:34.952Z,94567.00
2023-03-26T04:05:06.032Z,94564.34
2023-03-26T04:07:35.023Z,94556.41
2023-03-26T04:10:03.207Z,94561.69
2023-03-26T04:12:30.333Z,94560.09
2023-03-26T04:14:59.621Z,94567.00
2023-03-26T04:17:30.626Z,94581.25
2023-03-26T04:19:57.432Z,94582.09
2023-03-26T04:22:26.164Z,94591.84
2023-03-26T04:24:54.974Z,94601.66
2023-03-26T04:27:25.971Z,94607.75
2023-03-26T04:29:52.586Z,94613.84
2023-03-26T04:32:26.568Z,94616.72
2023-03-26T04:34:55.658Z,94623.63
2023-03-26T04:37:32.408Z,94628.13
2023-03-26T04:40:06.382Z,94627.31
2023-03-26T04:42:41.831Z,94631.78
2023-03-26T04:45:09.281Z,94643.19
2023-03-26T04:47:37.084Z,94638.72
2023-03-26T04:50:07.659Z,94645.84
2023-03-26T04:52:37.231Z,94648.50
2023-03-26T04:55:06.969Z,94645.84
2023-03-26T04:57:46.204Z,94642.38
2023-03-26T05:00:18.672Z,94644.81
2023-03-26T05:02:45.962Z,94646.88
2023-03-26T05:05:14.785Z,94641.59
2023-03-26T05:07:43.637Z,94637.09
2023-03-26T05:10:14.998Z,94640.56
2023-03-26T05:12:50.912Z,94649.53
2023-03-26T05:15:21.041Z,94652.19
2023-03-26T05:17:50.155Z,94662.56
2023-03-26T05:20:30.310Z,94651.38
2023-03-26T05:22:59.594Z,94660.69
2023-03-26T05:25:32.425Z,94657.25
2023-03-26T05:27:59.058Z,94666.00
2023-03-26T05:30:30.923Z,94676.59
2023-03-26T05:32:57.736Z,94671.28
2023-03-26T05:35:26.625Z,94670.25
2023-03-26T05:37:55.724Z,94670.25
2023-03-26T05:40:22.428Z,94677.97
2023-03-26T05:42:51.362Z,94679.81
2023-03-26T05:45:22.289Z,94674.50
2023-03-26T05:47:50.325Z,94683.84
2023-03-26T05:50:19.212Z,94677.72
2023-03-26T05:52:48.205Z,94678.53
2023-03-26T05:55:18.553Z,94683.63
2023-03-26T05:57:45.219Z,94680.97
2023-03-26T06:00:12.399Z,94678.06
2023-03-26T06:02:42.302Z,94669.91
2023-03-26T06:05:12.509Z,94668.88
2023-03-26T06:07:41.513Z,94671.03
2023-03-26T06:10:10.915Z,94668.97
2023-03-26T06:12:49.703Z,94674.25
2023-03-26T06:15:21.107Z,94660.78
2023-03-26T06:17:50.223Z,94652.59
2023-03-26T06:20:19.606Z,94660.53
2023-03-26T06:22:48.805Z,94664.81
2023-03-26T06:25:18.256Z,94678.63
2023-03-26T06:27:45.438Z,94665.13
2023-03-26T06:30:12.358Z,94668.34
2023-03-26T06:32:41.793Z,94657.31
2023-03-26T06:35:11.573Z,94659.72
2023-03-26T06:37:42.915Z,94661.88
2023-03-26T06:40:15.871Z,94653.94
2023-03-26T06:43:09.022Z,94659.25
2023-03-26T06:45:29.524Z,94661.66
2023-03-26T06:47:58.763Z,94661.66
2023-03-26T06:50:27.874Z,94665.13
2023-03-26T06:52:55.350Z,94674.69
2023-03-26T06:55:27.138Z,94685.28
2023-03-26T06:57:56.949Z,94680.56
2023-03-26T07:00:26.593Z,94691.16
2023-03-26T07:02:56.364Z,94686.44
2023-03-26T07:05:25.531Z,94693.34
2023-03-26T07:07:56.854Z,94699.22
2023-03-26T07:10:23.665Z,94696.56
2023-03-26T07:12:56.713Z,94692.88
2023-03-26T07:15:25.833Z,94697.75
2023-03-26T07:17:54.663Z,94688.75
2023-03-26T07:20:23.846Z,94693.56
2023-03-26T07:22:53.168Z,94676.84
2023-03-26T07:25:22.696Z,94689.88
2023-03-26T07:28:01.181Z,94686.19
2023-03-26T07:30:49.999Z,94680.88
2023-03-26T07:33:32.420Z,94680.41
2023-03-26T07:36:05.103Z,94680.41
2023-03-26T07:39:06.062Z,94677.53
2023-03-26T07:41:38.797Z,94669.81
2023-03-26T07:44:12.891Z,94669.81
2023-03-26T07:46:41.465Z,94678.31
2023-03-26T07:49:13.828Z,94678.31
2023-03-26T07:51:43.188Z,94673.03
2023-03-26T07:54:10.824Z,94673.03
2023-03-26T07:56:58.062Z,94666.94
2023-03-26T07:59:44.686Z,94676.72
2023-03-26T08:02:20.734Z,94667.72
2023-03-26T08:05:26.310Z,94668.53
2023-03-26T08:08:11.872Z,94665.63
2023-03-26T08:11:14.340Z,94661.38
2023-03-26T08:13:59.509Z,94658.50
2023-03-26T08:16:52.122Z,94656.06
2023-03-26T08:19:31.829Z,94657.47
2023-03-26T08:22:02.416Z,94669.66
2023-03-26T08:24:37.049Z,94659.88
2023-03-26T08:27:13.532Z,94662.53
2023-03-26T08:29:54.352Z,94667.59
2023-03-26T08:32:24.282Z,94664.72
2023-03-26T08:34:53.390Z,94673.22
2023-03-26T08:37:22.337Z,94664.22
2023-03-26T08:39:49.026Z,94662.16
2023-03-26T08:42:54.780Z,94666.41
2023-03-26T08:45:51.466Z,94665.34
2023-03-26T08:48:29.927Z,94663.31
2023-03-26T08:51:21.420Z,94659.13
2023-03-26T08:54:03.605Z,94651.72
2023-03-26T08:56:37.118Z,94663.22
2023-03-26T08:59:06.614Z,94656.06
2023-03-26T09:01:55.242Z,94658.16
2023-03-26T09:04:58.516Z,94662.81
2023-03-26T09:07:38.678Z,94654.75
2023-03-26T09:10:20.384Z,94664.22
2023-03-26T09:13:18.185Z,94667.28
2023-03-26T09:15:47.780Z,94670.28
2023-03-26T09:18:36.388Z,94647.06
2023-03-26T09:21:43.218Z,94656.84
2023-03-26T09:24:16.633Z,94648.53
2023-03-26T09:26:51.466Z,94652.81
2023-03-26T09:29:21.051Z,94647.50
2023-03-26T09:32:10.806Z,94647.75
2023-03-26T09:34:40.518Z,94642.22
2023-03-26T09:37:29.189Z,94643.72
2023-03-26T09:40:18.809Z,94643.16
2023-03-26T09:42:51.919Z,94637.75
2023-03-26T09:45:43.730Z,94626.50
2023-03-26T09:48:37.843Z,94647.56
2023-03-26T09:51:07.850Z,94627.31
2023-03-26T09:53:55.071Z,94630.91
2023-03-26T09:56:39.728Z,94620.88
2023-03-26T09:59:15.829Z,94620.88
2023-03-26T10:01:51.555Z,94627.44
2023-03-26T10:04:43.038Z,94617.19
2023-03-26T10:07:12.723Z,94614.91
2023-03-26T10:10:17.916Z,94605.34
2023-03-26T10:12:48.575Z,94606.38
2023-03-26T10:15:23.364Z,94595.81
2023-03-26T10:18:26.588Z,94592.59
2023-03-26T10:21:07.133Z,94586.81
2023-03-26T10:24:07.548Z,94583.13
2023-03-26T10:27:09.007Z,94574.16
2023-03-26T10:29:52.336Z,94573.00
2023-03-26T10:32:38.103Z,94564.50
2023-03-26T10:35:27.114Z,94558.75
2023-03-26T10:38:14.284Z,94554.97
2023-03-26T10:41:05.972Z,94553.44
2023-03-26T10:43:57.687Z,94552.31
2023-03-26T10:46:47.016Z,94547.13
2023-03-26T10:49:29.047Z,94546.81
2023-03-26T10:52:02.024Z,94535.28
2023-03-26T10:54:47.025Z,94537.00
2023-03-26T10:57:41.561Z,94536.44
2023-03-26T11:00:25.022Z,94531.28
2023-03-26T11:03:02.845Z,94537.34
2023-03-26T11:05:41.943Z,94541.59
2023-03-26T11:08:13.426Z,94532.31
2023-03-26T11:10:52.236Z,94528.97
2023-03-26T11:14:04.278Z,94524.81
2023-03-26T11:17:02.310Z,94529.91
2023-03-26T11:19:28.850Z,94521.41
2023-03-26T11:22:06.563Z,94522.56
2023-03-26T11:24:58.106Z,94523.34
2023-03-26T11:27:35.010Z,94516.25
2023-03-26T11:30:10.680Z,94506.47
2023-03-26T11:32:42.079Z,94509.31
2023-03-26T11:35:39.800Z,94507.28
2023-03-26T11:38:32.944Z,94495.50
2023-03-26T11:41:02.818Z,94498.53
2023-03-26T11:43:36.577Z,94494.84
2023-03-26T11:46:04.791Z,94485.28
2023-03-26T11:48:34.161Z,94477.84
2023-03-26T11:51:22.730Z,94474.94
2023-03-26T11:53:49.523Z,94459.75
2023-03-26T11:56:39.450Z,94458.06
2023-03-26T11:59:11.594Z,94454.16
2023-03-26T12:01:51.001Z,94448.63
2023-03-26T12:04:22.613Z,94440.13
2023-03-26T12:06:53.292Z,94440.13
2023-03-26T12:09:20.197Z,94438.50
2023-03-26T12:11:56.294Z,94434.16
2023-03-26T12:14:26.795Z,94437.38
2023-03-26T12:17:04.989Z,94432.09
2023-03-26T12:19:41.443Z,94426.31
2023-03-26T12:22:35.397Z,94421.59
2023-03-26T12:25:21.944Z,94406.78
2023-03-26T12:27:58.893Z,94406.78
2023-03-26T12:30:30.848Z,94394.13
2023-03-26T12:33:01.056Z,94398.38
2023-03-26T12:35:30.978Z,94400.34
2023-03-26T12:38:16.616Z,94391.25
2023-03-26T12:40:47.788Z,94373.09
2023-03-26T12:44:49.665Z,94375.03
2023-03-26T12:47:56.616Z,94382.75
2023-03-26T12:49:12.489Z,94385.06
2023-03-26T12:51:49.357Z,94371.25
2023-03-26T12:54:29.069Z,94366.19
2023-03-26T12:57:11.290Z,94369.06
2023-03-26T12:59:48.908Z,94367.00
2023-03-26T13:02:34.431Z,94367.00
2023-03-26T13:05:29.418Z,94366.81
2023-03-26T13:08:01.808Z,94370.59
2023-03-26T13:10:33.987Z,94364.25
2023-03-26T13:13:03.757Z,94364.81
2023-03-26T13:15:48.901Z,94350.00
2023-03-26T13:18:56.105Z,94355.63
2023-03-26T13:21:33.217Z,94347.25
2023-03-26T13:24:15.328Z,94346.91
2023-03-26T13:27:00.257Z,94345.66
2023-03-26T13:29:36.910Z,94350.94
2023-03-26T13:32:07.234Z,94353.03
2023-03-26T13:37:21.875Z,94337.59
2023-03-26T13:39:54.631Z,94347.75
2023-03-26T13:42:40.735Z,94347.25
2023-03-26T13:45:22.756Z,94361.88
2023-03-26T13:47:56.274Z,94350.25
2023-03-26T13:50:29.156Z,94351.03
2023-03-26T13:52:59.608Z,94337.81
2023-03-26T13:55:34.537Z,94347.91
2023-03-26T13:58:10.523Z,94336.31
2023-03-26T14:00:49.078Z,94333.69
2023-03-26T14:03:44.708Z,94331.59
2023-03-26T14:06:34.804Z,94331.59
2023-03-26T14:09:11.830Z,94329.53
2023-03-26T14:11:57.859Z,94324.22
2023-03-26T14:14:50.964Z,94322.16
2023-03-26T14:17:39.639Z,94309.50
2023-03-26T14:20:09.085Z,94305.81
2023-03-26T14:22:51.007Z,94314.28
2023-03-26T14:25:39.552Z,94318.53
2023-03-26T14:28:11.124Z,94304.53
2023-03-26T14:30:42.119Z,94317.50
2023-03-26T14:33:28.034Z,94305.31
2023-03-26T14:36:16.624Z,94309.56
2023-03-26T14:39:11.722Z,94314.63
2023-03-26T14:41:53.768Z,94302.22
2023-03-26T14:44:47.792Z,94294.28
2023-03-26T14:47:20.677Z,94298.53
2023-03-26T14:50:06.554Z,94301.19
2023-03-26T14:52:45.832Z,94307.03
2023-03-26T14:55:30.744Z,94303.34
2023-03-26T14:58:03.948Z,94298.06
2023-03-26T15:00:42.731Z,94300.47
2023-03-26T15:03:09.636Z,94303.13
2023-03-26T15:05:55.233Z,94310.25
2023-03-26T15:08:43.121Z,94310.25
2023-03-26T15:11:20.556Z,94307.59
2023-03-26T15:14:17.782Z,94305.50
2023-03-26T15:17:22.337Z,94305.50
2023-03-26T15:20:27.479Z,94311.84
2023-03-26T15:23:17.715Z,94308.16
2023-03-26T15:26:02.616Z,94308.16
2023-03-26T15:28:57.302Z,94311.84
2023-03-26T15:31:48.786Z,94315.31
2023-03-26T15:34:40.300Z,94304.72
2023-03-26T15:37:34.362Z,94311.84
2023-03-26T15:40:12.836Z,94317.13
2023-03-26T15:42:48.542Z,94311.63
2023-03-26T15:45:32.294Z,94314.50
2023-03-26T15:48:14.031Z,94319.78
2023-03-26T15:51:05.469Z,94314.50
2023-03-26T15:53:50.470Z,94312.88
2023-03-26T15:56:49.114Z,94318.19
2023-03-26T15:59:40.168Z,94318.19
2023-03-26T16:02:07.643Z,94315.53
2023-03-26T16:04:50.291Z,94311.28
2023-03-26T16:07:31.772Z,94313.69
2023-03-26T16:10:20.162Z,94311.28
2023-03-26T16:13:06.591Z,94317.13
2023-03-26T16:15:36.423Z,94322.44
2023-03-26T16:18:06.041Z,94320.81
2023-03-26T16:20:54.801Z,94320.25
2023-03-26T16:23:47.289Z,94328.75
2023-03-26T16:26:20.125Z,94333.22
2023-03-26T16:28:53.509Z,94330.84
2023-03-26T16:31:37.302Z,94329.25
2023-03-26T16:34:07.836Z,94332.94
2023-03-26T16:36:37.957Z,94338.22
2023-03-26T16:39:05.008Z,94336.63
2023-03-26T16:41:50.213Z,94341.91
2023-03-26T16:44:40.300Z,94340.53
2023-03-26T16:47:32.181Z,94342.34
2023-03-26T16:50:21.341Z,94346.03
2023-03-26T16:52:57.112Z,94347.06
2023-03-26T16:55:36.396Z,94345.72
2023-03-26T16:58:15.421Z,94339.63
2023-03-26T17:00:52.516Z,94345.94
2023-03-26T17:03:39.091Z,94341.94
2023-03-26T17:06:45.703Z,94338.50
2023-03-26T17:09:34.493Z,94346.66
2023-03-26T17:12:26.321Z,94349.53
2023-03-26T17:15:06.425Z,94344.47
2023-03-26T17:17:59.436Z,94353.19
2023-03-26T17:20:36.850Z,94352.63
2023-03-26T17:23:29.857Z,94348.03
2023-03-26T17:26:22.834Z,94352.06
2023-03-26T17:29:08.144Z,94359.44
2023-03-26T17:31:34.750Z,94356.22
2023-03-26T17:34:39.391Z,94354.63
2023-03-26T17:37:21.471Z,94355.41
2023-03-26T17:40:27.090Z,94358.31
2023-03-26T17:43:09.783Z,94350.03
2023-03-26T17:45:39.483Z,94348.19
2023-03-26T17:48:15.506Z,94346.56
2023-03-26T17:50:46.355Z,94344.97
2023-03-26T17:53:27.126Z,94333.28
2023-03-26T17:55:56.583Z,94347.31
2023-03-26T17:58:36.601Z,94347.75
2023-03-26T18:01:05.467Z,94336.25
2023-03-26T18:03:59.218Z,94344.09
2023-03-26T18:06:51.651Z,94342.97
2023-03-26T18:22:57.495Z,94329.75
2023-03-26T18:28:05.282Z,94344.13
2023-03-26T18:30:31.944Z,94335.03
2023-03-26T18:33:14.828Z,94332.31
2023-03-26T18:38:35.650Z,94331.16
2023-03-26T18:41:08.084Z,94323.47
2023-03-26T18:43:35.739Z,94319.78
2023-03-26T18:46:13.076Z,94317.78
2023-03-26T18:48:42.383Z,94312.97
2023-03-26T18:59:41.011Z,94300.94
2023-03-26T19:02:16.368Z,94304.25
2023-03-26T19:07:27.863Z,94294.50
2023-03-26T19:09:56.464Z,94290.84
2023-03-26T19:12:27.929Z,94279.47
2023-03-26T19:15:03.193Z,94275.00
2023-03-26T19:17:34.369Z,94267.06
2023-03-26T19:20:01.213Z,94260.19
2023-03-26T19:25:31.689Z,94268.09
2023-03-26T19:30:50.616Z,94255.94
2023-03-26T19:36:08.361Z,94255.94
2023-03-26T19:38:45.795Z,94250.66
2023-03-26T19:41:26.654Z,94252.72
2023-03-26T19:44:02.790Z,94244.22
2023-03-26T19:46:33.144Z,94244.22
2023-03-26T19:49:02.072Z,94233.66
2023-03-26T19:51:38.748Z,94225.72
2023-03-26T20:10:19.866Z,94217.81
2023-03-26T20:12:46.682Z,94228.97
2023-03-26T20:15:24.457Z,94225.28
2023-03-26T20:17:57.795Z,94222.09
2023-03-26T20:20:31.079Z,94208.88
2023-03-26T20:22:57.925Z,94215.28
2023-03-26T20:30:45.579Z,94210.56
2023-03-26T20:33:23.543Z,94211.63
2023-03-26T20:35:55.394Z,94207.38
2023-03-26T20:38:39.222Z,94203.69
2023-03-26T20:41:12.976Z,94205.19
2023-03-26T20:43:42.516Z,94206.81
2023-03-26T20:46:31.078Z,94198.31
2023-03-26T20:49:01.266Z,94198.53
2023-03-26T20:51:32.657Z,94199.56
2023-03-26T20:56:42.287Z,94195.09
2023-03-26T20:59:15.227Z,94190.28
2023-03-26T21:01:48.243Z,94195.56
2023-03-26T21:04:17.969Z,94197.16
2023-03-26T21:06:48.215Z,94201.66
2023-03-26T21:09:17.717Z,94197.16
2023-03-26T21:11:47.092Z,94181.56
2023-03-26T21:14:41.083Z,94182.59
2023-03-26T21:17:16.705Z,94183.38
2023-03-26T21:22:36.206Z,94182.59
2023-03-26T21:25:32.165Z,94179.25
2023-03-26T21:30:55.877Z,94167.75
2023-03-26T21:33:27.404Z,94182.66
2023-03-26T21:36:01.009Z,94173.25
2023-03-26T21:38:32.908Z,94160.13
2023-03-26T21:41:04.443Z,94161.28
2023-03-26T21:43:33.845Z,94151.88
2023-03-26T21:48:41.933Z,94145.69
2023-03-26T21:51:12.954Z,94133.63
2023-03-26T21:53:42.482Z,94131.06
2023-03-26T21:59:42.781Z,94121.16
2023-03-26T22:02:09.472Z,94124.38
2023-03-26T22:05:03.483Z,94109.63
2023-03-26T22:07:49.961Z,94114.44
2023-03-26T22:10:21.634Z,94113.94
2023-03-26T22:12:48.438Z,94122.47
2023-03-26T22:15:18.188Z,94121.97
2023-03-26T22:17:54.091Z,94123.31
2023-03-26T22:20:27.574Z,94112.50
2023-03-26T22:22:59.096Z,94105.69
2023-03-26T22:25:28.248Z,94102.00
2023-03-26T22:27:58.125Z,94098.09
2023-03-26T22:30:25.730Z,94085.41
2023-03-26T22:32:52.356Z,94082.56
2023-03-26T22:35:21.740Z,94083.34
2023-03-26T22:37:51.436Z,94073.09
2023-03-26T22:40:18.166Z,94079.19
2023-03-26T22:42:44.933Z,94077.09
2023-03-26T22:45:11.909Z,94083.75
2023-03-26T22:47:41.438Z,94066.84
2023-03-26T22:50:11.333Z,94059.47
2023-03-26T22:52:42.752Z,94056.00
2023-03-26T22:55:11.105Z,94060.00
2023-03-26T22:57:38.696Z,94059.19
2023-03-26T23:00:17.209Z,94051.59
2023-03-26T23:02:53.152Z,94051.59
2023-03-26T23:05:23.662Z,94049.50
2023-03-26T23:07:52.886Z,94044.75
2023-03-26T23:10:24.205Z,94043.75
2023-03-26T23:12:53.414Z,94035.56
2023-03-26T23:15:22.708Z,94035.34
2023-03-26T23:17:54.276Z,94031.66
2023-03-26T23:20:23.956Z,94034.28
2023-03-26T23:22:53.286Z,94033.25
2023-03-26T23:25:22.341Z,94028.50
2023-03-26T23:27:50.686Z,94020.56
2023-03-26T23:30:17.478Z,94016.88
2023-03-26T23:32:44.318Z,94019.53
2023-03-26T23:35:11.321Z,94016.63
2023-03-26T23:37:42.465Z,94003.97
2023-03-26T23:40:10.493Z,94004.75
2023-03-26T23:42:42.473Z,94020.63
2023-03-26T23:45:09.451Z,94013.25
2023-03-26T23:47:38.298Z,94004.28
2023-03-26T23:50:07.849Z,94000.59
2023-03-26T23:52:34.553Z,93996.88
2023-03-26T23:55:01.251Z,93968.56
2023-03-26T23:57:35.078Z,94000.88
